Terminal Aerodrome Forecast
Issued by NWS

Home | Current Version | Previous Version | Text Only | Print | Product List | Glossary On
Versions: 1 2 3 4 5 6 7 8 9 10 11 12 13 14 15
000
FTUS41 KPBZ 042128 AAB
TAFFKL
TAF AMD
KFKL 042128Z 0421/0518 24012G21KT P6SM BKN070
     FM050000 21011KT P6SM -SHRA BKN060
     FM050400 25007KT P6SM OVC025
     FM051000 VRB04KT 3SM -SHRA BR OVC015
     FM051300 07005KT P6SM OVC009
      AMD LTD TO CLD VIS AND WIND=

USA.gov is the U.S. government's official web portal to all federal, state and local government web resources and services.